^^
Station Historical Data
Daily Summary for January 3, 2018 Units:  Both    English   Metric
« Previous Day
Next Day »
Daily Weekly Monthly Yearly Custom
  High: Low: Average:
Temperature: TemperatureF °F /  -17.8 °C 72.1 °F /  22.3 °C 80.8 °F /  27.1 °C
Dew Point: DewpointF °F /  -17.8 °C 23.7 °F /  -4.6 °C 29.1 °F /  -1.6 °C
Humidity: Humidity% 12% 15%
Wind Speed: WindSpeedMPHmph /  0km/h - -17.7mph /  -28.5km/h
Wind Gust: WindSpeedGustMPHmph /  0km/h - -
Wind- -
Pressure: PressureIn in /  0 hPa 30.14 in /  1020.5 hPa -
Precipitation: 0.00 in /  0 mm    
Historical Graphs
 
 
Tabular Data for January 3, 2018
Time Temperature Dew Point Pressure Wind Wind Speed Wind Gust Humidity Rainfall Rate (Hourly) solar Conditions
TemperatureF °F /  -17.8 °C DewpointF °F /  -17.8 °C PressureInin /  0hPa Calm     Humidity% HourlyPrecipInin /  0mm SoftwareType W/m2 Conditions
09:01 72.1 °F /  22.3 °C 27.7 °F /  -2.4 °C 30.25in /  1024.3hPa North -999.9mph /  -1609.1km/h -999.0mph /  -1607.7km/h 19% 0.00in /  0mm meteobridge W/m2
09:07 72.7 °F /  22.6 °C 28.0 °F /  -2.2 °C 30.25in /  1024.3hPa NNE 6.9mph /  11.1km/h 18.0mph /  29km/h 19% 0.00in /  0mm meteobridge W/m2
09:13 72.9 °F /  22.7 °C 28.2 °F /  -2.1 °C 30.26in /  1024.6hPa North 14.1mph /  22.7km/h 17.0mph /  27.4km/h 19% 0.00in /  0mm meteobridge W/m2
09:20 73.2 °F /  22.9 °C 28.4 °F /  -2 °C 30.26in /  1024.6hPa North 11.0mph /  17.7km/h 16.0mph /  25.7km/h 19% 0.00in /  0mm meteobridge W/m2
09:26 73.6 °F /  23.1 °C 28.8 °F /  -1.8 °C 30.26in /  1024.6hPa NNE 11.0mph /  17.7km/h 18.0mph /  29km/h 19% 0.00in /  0mm meteobridge W/m2
09:32 73.6 °F /  23.1 °C 28.8 °F /  -1.8 °C 30.26in /  1024.6hPa North 11.0mph /  17.7km/h 18.0mph /  29km/h 19% 0.00in /  0mm meteobridge W/m2
09:38 74.1 °F /  23.4 °C 27.9 °F /  -2.3 °C 30.26in /  1024.6hPa North 15.0mph /  24.1km/h 15.0mph /  24.1km/h 18% 0.00in /  0mm meteobridge W/m2
09:44 74.1 °F /  23.4 °C 29.3 °F /  -1.5 °C 30.27in /  1024.9hPa NNE 10.1mph /  16.3km/h 17.0mph /  27.4km/h 19% 0.00in /  0mm meteobridge W/m2
09:58 75.4 °F /  24.1 °C 28.9 °F /  -1.7 °C 30.27in /  1024.9hPa NNE 17.9mph /  28.8km/h 18.0mph /  29km/h 18% 0.00in /  0mm meteobridge W/m2
10:04 75.6 °F /  24.2 °C 29.1 °F /  -1.6 °C 30.27in /  1024.9hPa North 12.1mph /  19.5km/h 18.0mph /  29km/h 18% 0.00in /  0mm meteobridge W/m2
10:10 75.7 °F /  24.3 °C 27.9 °F /  -2.3 °C 30.27in /  1024.9hPa NE 12.1mph /  19.5km/h 16.0mph /  25.7km/h 17% 0.00in /  0mm meteobridge W/m2
10:29 76.3 °F /  24.6 °C 28.2 °F /  -2.1 °C 30.27in /  1024.9hPa North 12.1mph /  19.5km/h 17.0mph /  27.4km/h 17% 0.00in /  0mm meteobridge W/m2
10:41 76.6 °F /  24.8 °C 28.6 °F /  -1.9 °C 30.27in /  1024.9hPa NE 2.9mph /  4.7km/h 17.0mph /  27.4km/h 17% 0.00in /  0mm meteobridge W/m2
10:47 77.2 °F /  25.1 °C 28.9 °F /  -1.7 °C 30.27in /  1024.9hPa NE 11.0mph /  17.7km/h 16.0mph /  25.7km/h 17% 0.00in /  0mm meteobridge W/m2
10:53 77.4 °F /  25.2 °C 29.1 °F /  -1.6 °C 30.27in /  1024.9hPa NNE 11.0mph /  17.7km/h 20.0mph /  32.2km/h 17% 0.00in /  0mm meteobridge W/m2
10:59 77.0 °F /  25 °C 28.8 °F /  -1.8 °C 30.27in /  1024.9hPa NE 16.1mph /  25.9km/h 21.0mph /  33.8km/h 17% 0.00in /  0mm meteobridge W/m2
11:11 77.9 °F /  25.5 °C 29.7 °F /  -1.3 °C 30.27in /  1024.9hPa North 13.0mph /  20.9km/h 21.0mph /  33.8km/h 17% 0.00in /  0mm meteobridge W/m2
11:17 77.5 °F /  25.3 °C 29.3 °F /  -1.5 °C 30.27in /  1024.9hPa North 6.0mph /  9.7km/h 16.0mph /  25.7km/h 17% 0.00in /  0mm meteobridge W/m2
11:23 77.7 °F /  25.4 °C 29.5 °F /  -1.4 °C 30.27in /  1024.9hPa North 2.9mph /  4.7km/h 14.0mph /  22.5km/h 17% 0.00in /  0mm meteobridge W/m2
11:29 78.1 °F /  25.6 °C 29.7 °F /  -1.3 °C 30.27in /  1024.9hPa NNE 8.1mph /  13km/h 15.0mph /  24.1km/h 17% 0.00in /  0mm meteobridge W/m2
11:35 78.6 °F /  25.9 °C 30.2 °F /  -1 °C 30.27in /  1024.9hPa NNE 4.9mph /  7.9km/h 9.0mph /  14.5km/h 17% 0.00in /  0mm meteobridge W/m2
11:42 78.6 °F /  25.9 °C 30.2 °F /  -1 °C 30.26in /  1024.6hPa NE 8.9mph /  14.3km/h 15.0mph /  24.1km/h 17% 0.00in /  0mm meteobridge W/m2
11:48 78.6 °F /  25.9 °C 28.8 °F /  -1.8 °C 30.26in /  1024.6hPa NNW 4.9mph /  7.9km/h 17.0mph /  27.4km/h 16% 0.00in /  0mm meteobridge W/m2
11:54 78.8 °F /  26 °C 28.8 °F /  -1.8 °C 30.26in /  1024.6hPa NE 4.9mph /  7.9km/h 9.0mph /  14.5km/h 16% 0.00in /  0mm meteobridge W/m2
12:00 79.2 °F /  26.2 °C 30.6 °F /  -0.8 °C 30.26in /  1024.6hPa NNW 4.9mph /  7.9km/h 19.0mph /  30.6km/h 17% 0.00in /  0mm meteobridge W/m2
12:31 80.1 °F /  26.7 °C 29.8 °F /  -1.2 °C 30.24in /  1023.9hPa North 16.1mph /  25.9km/h 19.0mph /  30.6km/h 16% 0.00in /  0mm meteobridge W/m2
12:37 80.4 °F /  26.9 °C 30.2 °F /  -1 °C 30.24in /  1023.9hPa NNE 4.9mph /  7.9km/h 11.0mph /  17.7km/h 16% 0.00in /  0mm meteobridge W/m2
12:43 81.3 °F /  27.4 °C 30.9 °F /  -0.6 °C 30.24in /  1023.9hPa NNW 15.0mph /  24.1km/h 19.0mph /  30.6km/h 16% 0.00in /  0mm meteobridge W/m2
12:55 80.4 °F /  26.9 °C 30.2 °F /  -1 °C 30.24in /  1023.9hPa North 10.1mph /  16.3km/h 13.0mph /  20.9km/h 16% 0.00in /  0mm meteobridge W/m2
13:07 82.2 °F /  27.9 °C 31.6 °F /  -0.2 °C 30.24in /  1023.9hPa NNW 2.9mph /  4.7km/h 11.0mph /  17.7km/h 16% 0.00in /  0mm meteobridge W/m2
13:26 83.1 °F /  28.4 °C 32.4 °F /  0.2 °C 30.23in /  1023.6hPa NNE 10.1mph /  16.3km/h 17.0mph /  27.4km/h 16% 0.00in /  0mm meteobridge W/m2
13:32 82.8 °F /  28.2 °C 32.0 °F /  0 °C 30.23in /  1023.6hPa NW 10.1mph /  16.3km/h 17.0mph /  27.4km/h 16% 0.00in /  0mm meteobridge W/m2
13:38 83.1 °F /  28.4 °C 32.4 °F /  0.2 °C 30.22in /  1023.2hPa NNE 2.0mph /  3.2km/h 6.0mph /  9.7km/h 16% 0.00in /  0mm meteobridge W/m2
13:40 83.5 °F /  28.6 °C 32.5 °F /  0.3 °C 30.22in /  1023.2hPa NNE 6.9mph /  11.1km/h 12.0mph /  19.3km/h 16% 0.00in /  0mm meteobridge W/m2
13:46 83.3 °F /  28.5 °C 32.4 °F /  0.2 °C 30.22in /  1023.2hPa North 13.0mph /  20.9km/h 17.0mph /  27.4km/h 16% 0.00in /  0mm meteobridge W/m2
13:50 83.7 °F /  28.7 °C 32.7 °F /  0.4 °C 30.21in /  1022.9hPa SE 2.9mph /  4.7km/h 4.0mph /  6.4km/h 16% 0.00in /  0mm meteobridge W/m2
13:56 83.8 °F /  28.8 °C 32.9 °F /  0.5 °C 30.22in /  1023.2hPa NW 11.0mph /  17.7km/h 21.0mph /  33.8km/h 16% 0.00in /  0mm meteobridge W/m2
14:03 83.1 °F /  28.4 °C 32.4 °F /  0.2 °C 30.21in /  1022.9hPa WNW 6.0mph /  9.7km/h 23.0mph /  37km/h 16% 0.00in /  0mm meteobridge W/m2
14:09 82.8 °F /  28.2 °C 32.0 °F /  0 °C 30.21in /  1022.9hPa NNW 6.0mph /  9.7km/h 14.0mph /  22.5km/h 16% 0.00in /  0mm meteobridge W/m2
14:15 83.5 °F /  28.6 °C 32.5 °F /  0.3 °C 30.21in /  1022.9hPa SE 2.9mph /  4.7km/h 6.0mph /  9.7km/h 16% 0.00in /  0mm meteobridge W/m2
14:27 85.6 °F /  29.8 °C 30.9 °F /  -0.6 °C 30.20in /  1022.6hPa North 6.0mph /  9.7km/h 14.0mph /  22.5km/h 14% 0.00in /  0mm meteobridge W/m2
14:33 84.4 °F /  29.1 °C 31.6 °F /  -0.2 °C 30.20in /  1022.6hPa NW 4.9mph /  7.9km/h 13.0mph /  20.9km/h 15% 0.00in /  0mm meteobridge W/m2
14:39 84.0 °F /  28.9 °C 29.7 °F /  -1.3 °C 30.20in /  1022.6hPa NW 2.0mph /  3.2km/h 10.0mph /  16.1km/h 14% 0.00in /  0mm meteobridge W/m2
14:46 83.7 °F /  28.7 °C 29.5 °F /  -1.4 °C 30.20in /  1022.6hPa North 4.9mph /  7.9km/h 8.0mph /  12.9km/h 14% 0.00in /  0mm meteobridge W/m2
14:52 83.8 °F /  28.8 °C 31.3 °F /  -0.4 °C 30.19in /  1022.2hPa NE 4.9mph /  7.9km/h 13.0mph /  20.9km/h 15% 0.00in /  0mm meteobridge W/m2
14:58 84.6 °F /  29.2 °C 30.2 °F /  -1 °C 30.19in /  1022.2hPa NNE 2.0mph /  3.2km/h 9.0mph /  14.5km/h 14% 0.00in /  0mm meteobridge W/m2
15:04 84.9 °F /  29.4 °C 30.4 °F /  -0.9 °C 30.18in /  1021.9hPa WSW 2.9mph /  4.7km/h 3.0mph /  4.8km/h 14% 0.00in /  0mm meteobridge W/m2
15:10 85.8 °F /  29.9 °C 31.1 °F /  -0.5 °C 30.18in /  1021.9hPa NNE 6.0mph /  9.7km/h 6.0mph /  9.7km/h 14% 0.00in /  0mm meteobridge W/m2
15:17 86.4 °F /  30.2 °C 31.5 °F /  -0.3 °C 30.17in /  1021.6hPa West 0.9mph /  1.4km/h 9.0mph /  14.5km/h 14% 0.00in /  0mm meteobridge W/m2
15:25 85.8 °F /  29.9 °C 31.1 °F /  -0.5 °C 30.17in /  1021.6hPa NNW 8.9mph /  14.3km/h 10.0mph /  16.1km/h 14% 0.00in /  0mm meteobridge W/m2
15:31 85.5 °F /  29.7 °C 30.9 °F /  -0.6 °C 30.17in /  1021.6hPa NNE 6.0mph /  9.7km/h 11.0mph /  17.7km/h 14% 0.00in /  0mm meteobridge W/m2
15:37 84.6 °F /  29.2 °C 30.2 °F /  -1 °C 30.17in /  1021.6hPa West 4.0mph /  6.4km/h 16.0mph /  25.7km/h 14% 0.00in /  0mm meteobridge W/m2
15:43 84.7 °F /  29.3 °C 30.2 °F /  -1 °C 30.17in /  1021.6hPa North 10.1mph /  16.3km/h 13.0mph /  20.9km/h 14% 0.00in /  0mm meteobridge W/m2
15:49 84.7 °F /  29.3 °C 30.2 °F /  -1 °C 30.17in /  1021.6hPa NNW 2.0mph /  3.2km/h 5.0mph /  8km/h 14% 0.00in /  0mm meteobridge W/m2
15:55 85.3 °F /  29.6 °C 30.7 °F /  -0.7 °C 30.16in /  1021.2hPa SSW 4.9mph /  7.9km/h 5.0mph /  8km/h 14% 0.00in /  0mm meteobridge W/m2
16:01 85.6 °F /  29.8 °C 29.1 °F /  -1.6 °C 30.16in /  1021.2hPa Calm   6.0mph /  9.7km/h 13% 0.00in /  0mm meteobridge W/m2
16:07 86.4 °F /  30.2 °C 29.7 °F /  -1.3 °C 30.16in /  1021.2hPa NNE 4.9mph /  7.9km/h 7.0mph /  11.3km/h 13% 0.00in /  0mm meteobridge W/m2
16:13 85.8 °F /  29.9 °C 29.3 °F /  -1.5 °C 30.16in /  1021.2hPa South 4.9mph /  7.9km/h 6.0mph /  9.7km/h 13% 0.00in /  0mm meteobridge W/m2
16:19 85.8 °F /  29.9 °C 29.3 °F /  -1.5 °C 30.16in /  1021.2hPa NNW 14.1mph /  22.7km/h 15.0mph /  24.1km/h 13% 0.00in /  0mm meteobridge W/m2
16:26 85.6 °F /  29.8 °C 29.1 °F /  -1.6 °C 30.16in /  1021.2hPa North 8.1mph /  13km/h 8.1mph /  13km/h 13% 0.00in /  0mm meteobridge W/m2
16:32 86.4 °F /  30.2 °C 29.7 °F /  -1.3 °C 30.16in /  1021.2hPa Calm   6.0mph /  9.7km/h 13% 0.00in /  0mm meteobridge W/m2
16:38 85.6 °F /  29.8 °C 29.1 °F /  -1.6 °C 30.15in /  1020.9hPa North 10.1mph /  16.3km/h 16.0mph /  25.7km/h 13% 0.00in /  0mm meteobridge W/m2
16:40 85.3 °F /  29.6 °C 28.9 °F /  -1.7 °C 30.15in /  1020.9hPa NNW 4.0mph /  6.4km/h 17.0mph /  27.4km/h 13% 0.00in /  0mm meteobridge W/m2
16:52 84.6 °F /  29.2 °C 28.4 °F /  -2 °C 30.15in /  1020.9hPa North 2.9mph /  4.7km/h 11.0mph /  17.7km/h 13% 0.00in /  0mm meteobridge W/m2
17:04 86.0 °F /  30 °C 29.5 °F /  -1.4 °C 30.15in /  1020.9hPa South 4.9mph /  7.9km/h 11.0mph /  17.7km/h 13% 0.00in /  0mm meteobridge W/m2
17:10 85.5 °F /  29.7 °C 28.9 °F /  -1.7 °C 30.15in /  1020.9hPa NNE 2.9mph /  4.7km/h 10.0mph /  16.1km/h 13% 0.00in /  0mm meteobridge W/m2
17:17 85.1 °F /  29.5 °C 28.8 °F /  -1.8 °C 30.14in /  1020.5hPa North 2.0mph /  3.2km/h 3.0mph /  4.8km/h 13% 0.00in /  0mm meteobridge W/m2
17:23 84.9 °F /  29.4 °C 28.6 °F /  -1.9 °C 30.14in /  1020.5hPa ENE 2.9mph /  4.7km/h 11.0mph /  17.7km/h 13% 0.00in /  0mm meteobridge W/m2
17:29 86.0 °F /  30 °C 29.5 °F /  -1.4 °C 30.15in /  1020.9hPa WNW 0.9mph /  1.4km/h 2.0mph /  3.2km/h 13% 0.00in /  0mm meteobridge W/m2
17:35 87.1 °F /  30.6 °C 28.4 °F /  -2 °C 30.15in /  1020.9hPa NNE 6.0mph /  9.7km/h 11.0mph /  17.7km/h 12% 0.00in /  0mm meteobridge W/m2
17:41 85.8 °F /  29.9 °C 27.3 °F /  -2.6 °C 30.15in /  1020.9hPa ESE 0.9mph /  1.4km/h 7.0mph /  11.3km/h 12% 0.00in /  0mm meteobridge W/m2
17:45 85.6 °F /  29.8 °C 27.1 °F /  -2.7 °C 30.15in /  1020.9hPa West 2.9mph /  4.7km/h 7.0mph /  11.3km/h 12% 0.00in /  0mm meteobridge W/m2
17:51 85.5 °F /  29.7 °C 27.1 °F /  -2.7 °C 30.15in /  1020.9hPa SW 2.9mph /  4.7km/h 12.0mph /  19.3km/h 12% 0.00in /  0mm meteobridge W/m2
18:03 84.4 °F /  29.1 °C 28.2 °F /  -2.1 °C 30.15in /  1020.9hPa North 4.0mph /  6.4km/h 6.0mph /  9.7km/h 13% 0.00in /  0mm meteobridge W/m2
18:09 84.4 °F /  29.1 °C 28.2 °F /  -2.1 °C 30.15in /  1020.9hPa SSE 2.9mph /  4.7km/h 4.0mph /  6.4km/h 13% 0.00in /  0mm meteobridge W/m2
18:22 85.3 °F /  29.6 °C 28.9 °F /  -1.7 °C 30.15in /  1020.9hPa WSW 2.0mph /  3.2km/h 3.0mph /  4.8km/h 13% 0.00in /  0mm meteobridge W/m2
18:28 84.6 °F /  29.2 °C 26.4 °F /  -3.1 °C 30.15in /  1020.9hPa North 4.9mph /  7.9km/h 12.0mph /  19.3km/h 12% 0.00in /  0mm meteobridge W/m2
18:40 83.8 °F /  28.8 °C 25.9 °F /  -3.4 °C 30.15in /  1020.9hPa NNW 11.0mph /  17.7km/h 17.0mph /  27.4km/h 12% 0.00in /  0mm meteobridge W/m2
18:58 83.1 °F /  28.4 °C 25.3 °F /  -3.7 °C 30.16in /  1021.2hPa WSW 2.0mph /  3.2km/h 5.0mph /  8km/h 12% 0.00in /  0mm meteobridge W/m2
19:26 81.7 °F /  27.6 °C 24.1 °F /  -4.4 °C 30.17in /  1021.6hPa SSE 6.0mph /  9.7km/h 6.0mph /  9.7km/h 12% 0.00in /  0mm meteobridge W/m2
19:45 81.1 °F /  27.3 °C 23.7 °F /  -4.6 °C 30.18in /  1021.9hPa NNW 2.0mph /  3.2km/h -999.0mph /  -1607.7km/h 12% 0.00in /  0mm meteobridge W/m2
19:54 81.1 °F /  27.3 °C 23.7 °F /  -4.6 °C 30.19in /  1022.2hPa North -999.9mph /  -1609.1km/h -999.0mph /  -1607.7km/h 12% 0.00in /  0mm meteobridge W/m2
Regenstein, Windhoek, Namibia
Compliments of Weather Underground - 2.25 mb